Southwest Georgia Regional Airport
KABY : now visible

Airfield :











YOU CAN JOIN US ON...

 
LOGIN :

Register | Disclaimer

   EN    FR    IT 

 









Legend :    VFR   Marginal VFR   IFR   Intensive IFR   Very Intensive IFR
Visi :
Ceiling :
>= 8 km
>= 3000ft
5 to 8 km
1000 to 3000 ft
1500m to 5 km
500 to 1000 ft
800 to 1500m
200 to 500 ft
< 800m
< 200 ft
Symbols :   Thunderstorms  Fog  Heavy snow  Heavy precipitations  Wind > 20 kt






- Airport Elevation : 197 ft
- IATA code : ABY


KABY - Southwest Georgia Regional

CURRENT METAR :
  • 070053Z AUTO 00000KT 10SM CLR 12/08 A3015 RMK AO2 SLP211 T01170078

EXPIRED METARs :
  • 062353Z 00000KT 10SM CLR 14/07 A3014 RMK AO2 SLP206 T01440067 10211 20144 58006
  • 062253Z 00000KT 10SM FEW100 16/10 A3016 RMK AO2 SLP212 T01560100

TAF KABY
Valid from the 07 at 00:00 until the 08 at 00:00 UTC


062320Z 0700/0724 18005KT P6SM VCSH BKN050
FM070200 07005KT P6SM BKN050
FM070700 00000KT P6SM BKN025
FM071200 11005KT P6SM BKN040



MET'MAP, your aeronautical weather chart ! - Copyright ORBIFLY December 2007 - Disclaimer

ORBIFLY MET'MAP TEAM :

Programming & Development : Alexandra Zaïnal
Concept & original design : Baudouin d'Aumeries
Assistance for programming : Marc-Olivier Méhu
Technical & hardware support : Manuel Goepfert

Contact : metmap@orbifly.com




SOURCES & CREDITS :

   NOAA       Earth
Advisory